Time;durP1;ratioP1;P1;durP2;ratioP2;P2;SDS_P1;SDS_P2;PMS_P1;PMS_P2;Temp;Humidity;BMP_temperature;BMP_pressure;BME280_temperature;BME280_humidity;BME280_pressure;Samples;Min_cycle;Max_cycle;Signal;HPM_P1;HPM_P2
2023/01/18 00:00:09;;;;;;;;;0.00;0.00;;;;;5.62;68.96;98399.16;5011141;28;45606;-72
2023/01/18 00:02:35;;;;;;;;;6.25;6.00;;;;;5.77;68.87;98419.25;5006449;28;46221;-70
2023/01/18 00:05:00;;;;;;;;;0.00;0.00;;;;;5.69;69.11;98413.94;5008497;28;45269;-72
2023/01/18 00:07:26;;;;;;;;;0.00;0.00;;;;;5.76;68.91;98431.31;5008036;28;45511;-71
2023/01/18 00:09:51;;;;;;;;;0.00;0.00;;;;;5.74;68.83;98422.63;5006418;28;45412;-72
2023/01/18 00:12:18;;;;;;;;;0.00;0.00;;;;;5.77;69.00;98425.28;5006556;28;46222;-72
2023/01/18 00:14:43;;;;;;;;;0.00;0.00;;;;;5.57;68.65;98393.91;5006052;28;45574;-71
2023/01/18 00:17:09;;;;;;;;;0.00;0.00;;;;;5.74;68.65;98408.81;5006291;28;45481;-71
2023/01/18 00:19:34;;;;;;;;;0.00;0.00;;;;;5.88;68.82;98430.63;5010655;28;45502;-72
2023/01/18 00:22:00;;;;;;;;;1.25;1.00;;;;;5.89;69.29;98405.56;5003442;28;45482;-71
2023/01/18 00:24:26;;;;;;;;;1.00;1.00;;;;;5.67;68.71;98362.94;5012143;28;45407;-71
2023/01/18 00:26:52;;;;;;;;;0.00;0.00;;;;;5.74;69.45;98373.41;5013555;28;45657;-71
2023/01/18 00:29:18;;;;;;;;;0.00;0.00;;;;;5.82;69.32;98393.38;5006300;28;45391;-70
2023/01/18 00:31:44;;;;;;;;;0.00;0.00;;;;;5.80;69.53;98395.94;5007957;28;46038;-70
2023/01/18 00:34:10;;;;;;;;;0.00;0.00;;;;;5.80;69.78;98411.50;5007972;28;45510;-69
2023/01/18 00:36:35;;;;;;;;;0.00;0.00;;;;;5.76;69.21;98414.91;5006726;28;45542;-70
2023/01/18 00:39:01;;;;;;;;;0.00;0.00;;;;;5.66;69.33;98423.38;5004023;28;45273;-70
2023/01/18 00:41:27;;;;;;;;;0.00;0.00;;;;;5.67;69.26;98440.66;5007006;28;45343;-69
2023/01/18 00:43:52;;;;;;;;;0.00;0.00;;;;;5.70;69.57;98438.97;5010827;28;45457;-70
2023/01/18 00:46:24;;;;;;;;;0.00;0.00;;;;;5.73;69.52;98441.63;5009349;28;45478;-69
2023/01/18 00:48:51;;;;;;;;;0.00;0.00;;;;;5.73;69.50;98441.63;5002958;28;45395;-70
2023/01/18 00:51:23;;;;;;;;;0.00;0.00;;;;;5.55;69.48;98415.44;5008447;28;45546;-70
2023/01/18 00:53:50;;;;;;;;;0.00;0.00;;;;;5.75;69.72;98447.72;5006337;28;45541;-70
2023/01/18 00:56:18;;;;;;;;;0.00;0.00;;;;;5.73;69.59;98457.19;5008975;28;45505;-70
2023/01/18 00:58:44;;;;;;;;;0.00;0.00;;;;;5.71;69.53;98451.09;5009204;28;45394;-70
2023/01/18 01:01:11;;;;;;;;;0.00;0.00;;;;;5.63;69.52;98451.81;5008268;28;46069;-72
2023/01/18 01:06:45;;;;;;;;;0.00;0.00;;;;;5.67;69.06;98453.59;5008880;28;45268;-71
2023/01/18 01:09:23;;;;;;;;;0.00;0.00;;;;;5.66;69.91;98450.16;5005674;28;45502;-72
2023/01/18 01:28:20;;;;;;;;;0.00;0.00;;;;;5.33;70.85;98435.81;5004583;28;45454;-71
2023/01/18 01:30:45;;;;;;;;;0.00;0.00;;;;;5.29;70.52;98443.47;5011541;28;45539;-71
2023/01/18 01:33:11;;;;;;;;;0.00;0.00;;;;;5.28;70.79;98447.78;5005738;28;46036;-71
2023/01/18 01:35:36;;;;;;;;;1.00;1.00;;;;;5.26;70.54;98453.81;5012628;28;45545;-70
2023/01/18 01:38:02;;;;;;;;;14.75;11.25;;;;;5.25;70.67;98467.56;5011423;28;45531;-70
2023/01/18 01:40:28;;;;;;;;;1.00;1.00;;;;;5.22;70.69;98476.16;5008253;28;45263;-71
2023/01/18 01:42:53;;;;;;;;;0.00;0.00;;;;;5.26;70.79;98487.47;5012733;28;45321;-70
2023/01/18 01:45:24;;;;;;;;;0.00;0.00;;;;;5.19;70.50;98476.09;5012878;28;45536;-71
2023/01/18 01:47:51;;;;;;;;;0.00;0.00;;;;;5.29;69.77;98484.91;5011624;28;45410;-70
2023/01/18 01:50:33;;;;;;;;;0.00;0.00;;;;;5.27;70.41;98492.66;5008736;28;45340;-70
2023/01/18 01:52:58;;;;;;;;;0.00;0.00;;;;;5.25;70.36;98503.81;5006777;28;45525;-71
2023/01/18 01:55:36;;;;;;;;;0.00;0.00;;;;;5.24;70.74;98504.69;5011165;28;45516;-70
2023/01/18 01:58:05;;;;;;;;;0.00;0.00;;;;;5.26;70.26;98506.44;5006071;28;45496;-70
2023/01/18 02:00:31;;;;;;;;;0.00;0.00;;;;;5.22;70.56;98502.06;5007311;28;46554;-71
2023/01/18 02:03:11;;;;;;;;;0.00;0.00;;;;;5.27;70.83;98512.47;5011537;28;46081;-71
2023/01/18 02:05:42;;;;;;;;;0.00;0.00;;;;;5.27;70.45;98521.16;5008090;28;45431;-72
2023/01/18 02:08:10;;;;;;;;;0.00;0.00;;;;;5.03;70.49;98487.03;5006897;28;45491;-70
2023/01/18 02:10:37;;;;;;;;;0.00;0.00;;;;;5.21;70.35;98525.31;5008720;28;45441;-70
2023/01/18 02:13:06;;;;;;;;;0.00;0.00;;;;;5.15;70.46;98518.31;5010777;28;46243;-71
2023/01/18 02:16:05;;;;;;;;;0.00;0.00;;;;;5.17;70.90;98516.63;5012334;28;45567;-70
2023/01/18 02:18:36;;;;;;;;;0.00;0.00;;;;;5.17;70.40;98520.09;5008465;28;45515;-70
2023/01/18 02:21:16;;;;;;;;;0.00;0.00;;;;;5.16;70.51;98518.34;5014523;28;45490;-72
2023/01/18 02:23:53;;;;;;;;;0.00;0.00;;;;;5.16;70.59;98513.16;5010368;28;46389;-71
2023/01/18 02:26:25;;;;;;;;;0.00;0.00;;;;;5.16;70.25;98514.88;5009623;28;45297;-71
2023/01/18 02:29:12;;;;;;;;;0.00;0.00;;;;;4.92;70.19;98469.59;5009633;28;45353;-72
2023/01/18 02:32:11;;;;;;;;;0.00;0.00;;;;;5.18;70.05;98497.66;5010468;28;45382;-70
2023/01/18 02:34:46;;;;;;;;;0.00;0.00;;;;;5.16;69.84;98495.03;5006673;28;45481;-71
2023/01/18 02:37:31;;;;;;;;;0.00;0.00;;;;;5.16;70.37;98491.59;5009667;28;45494;-71
2023/01/18 02:40:18;;;;;;;;;0.00;0.00;;;;;5.14;70.57;98481.19;5007409;28;45425;-71
2023/01/18 02:48:21;;;;;;;;;0.00;0.00;;;;;5.08;70.16;98506.97;5010018;28;45518;-70
2023/01/18 02:50:46;;;;;;;;;0.00;0.00;;;;;5.07;69.93;98525.91;5009608;28;45545;-70
2023/01/18 02:53:13;;;;;;;;;0.00;0.00;;;;;5.02;70.67;98530.16;5011837;28;45558;-70
2023/01/18 02:55:48;;;;;;;;;0.00;0.00;;;;;5.05;70.10;98526.75;5013606;28;46148;-70
2023/01/18 02:58:22;;;;;;;;;0.00;0.00;;;;;5.06;70.33;98531.94;5007936;28;45438;-71
2023/01/18 03:00:53;;;;;;;;;0.00;0.00;;;;;5.04;70.91;98540.53;5007476;28;45439;-70
2023/01/18 03:03:21;;;;;;;;;0.00;0.00;;;;;4.83;70.56;98505.59;5010779;28;45439;-70
2023/01/18 03:05:48;;;;;;;;;0.00;0.00;;;;;5.05;70.58;98545.72;5009163;28;45413;-71
2023/01/18 03:08:22;;;;;;;;;0.00;0.00;;;;;5.05;70.49;98548.31;5004313;28;45611;-71
2023/01/18 03:11:01;;;;;;;;;0.00;0.00;;;;;5.10;70.29;98556.19;5016484;28;45305;-70
2023/01/18 03:13:53;;;;;;;;;0.00;0.00;;;;;5.08;70.42;98560.47;5004708;28;45431;-70
2023/01/18 03:16:25;;;;;;;;;0.00;0.00;;;;;5.12;70.00;98565.72;5000058;28;45565;-69
2023/01/18 03:21:52;;;;;;;;;0.00;0.00;;;;;5.19;69.34;98584.81;5008888;28;45360;-71
2023/01/18 03:24:19;;;;;;;;;0.00;0.00;;;;;4.97;69.78;98535.25;5013259;28;45904;-70
2023/01/18 03:26:55;;;;;;;;;0.00;0.00;;;;;5.01;69.27;98561.16;5014238;28;46070;-71
2023/01/18 03:35:02;;;;;;;;;0.00;0.00;;;;;5.15;70.43;98634.78;5006960;28;45430;-70
2023/01/18 03:37:36;;;;;;;;;0.00;0.00;;;;;5.15;70.42;98614.97;5004989;28;45516;-70
2023/01/18 03:40:14;;;;;;;;;0.00;0.00;;;;;5.16;70.81;98636.53;5011151;28;45553;-71
2023/01/18 03:43:16;;;;;;;;;1.50;0.25;;;;;5.15;70.51;98646.03;5009863;28;45449;-70
2023/01/18 03:45:53;;;;;;;;;0.00;0.00;;;;;5.17;70.54;98620.16;5006516;28;45415;-71
2023/01/18 03:48:19;;;;;;;;;0.00;0.00;;;;;5.15;70.24;98616.66;5009968;28;45436;-72
2023/01/18 03:50:55;;;;;;;;;0.00;0.00;;;;;5.13;70.70;98593.34;5009419;28;45609;-70
2023/01/18 03:53:33;;;;;;;;;0.00;0.00;;;;;5.06;71.30;98575.94;5002579;28;45364;-71
2023/01/18 03:56:12;;;;;;;;;0.00;0.00;;;;;5.02;71.03;98591.38;5007084;28;45605;-71
2023/01/18 03:58:39;;;;;;;;;0.00;0.00;;;;;4.77;70.95;98557.22;5011259;28;45403;-71
2023/01/18 04:01:05;;;;;;;;;0.00;0.00;;;;;4.94;71.05;98606.75;5011168;28;45626;-71
2023/01/18 04:03:33;;;;;;;;;0.00;0.00;;;;;4.88;71.85;98594.56;5002006;28;45758;-71
2023/01/18 04:06:03;;;;;;;;;0.00;0.00;;;;;4.86;71.60;98593.66;5015846;28;45152;-71
2023/01/18 04:08:28;;;;;;;;;0.00;0.00;;;;;4.80;71.65;98583.16;5007619;28;46177;-70
2023/01/18 04:10:54;;;;;;;;;0.00;0.00;;;;;4.82;71.48;98581.50;5013659;28;45389;-71
2023/01/18 04:13:19;;;;;;;;;0.00;0.00;;;;;4.82;71.58;98585.81;5008074;28;45470;-70
2023/01/18 04:15:45;;;;;;;;;0.00;0.00;;;;;4.77;71.75;98601.19;5013961;28;45363;-70
2023/01/18 04:18:10;;;;;;;;;0.00;0.00;;;;;4.79;71.73;98602.09;5007301;28;46024;-71
2023/01/18 04:20:36;;;;;;;;;0.00;0.00;;;;;4.77;72.30;98634.81;4999256;28;45481;-73
2023/01/18 04:23:01;;;;;;;;;0.00;0.00;;;;;4.74;72.29;98655.47;4997646;28;45312;-71
2023/01/18 04:25:27;;;;;;;;;0.00;0.00;;;;;4.70;71.78;98664.00;4997631;28;45459;-71
2023/01/18 04:27:52;;;;;;;;;0.00;0.00;;;;;4.66;71.83;98670.81;5012408;28;45292;-72
2023/01/18 04:30:18;;;;;;;;;0.00;0.00;;;;;4.64;72.02;98689.72;4997470;28;45371;-71
2023/01/18 04:32:45;;;;;;;;;0.00;0.00;;;;;4.46;72.35;98732.38;5012609;28;45383;-70
2023/01/18 04:35:11;;;;;;;;;0.00;0.00;;;;;4.42;72.70;98712.47;5014724;28;45693;-70
2023/01/18 04:37:37;;;;;;;;;0.00;0.00;;;;;4.47;72.56;98703.09;5015686;28;46143;-71
2023/01/18 04:40:05;;;;;;;;;0.00;0.00;;;;;4.48;72.25;98691.94;5015776;28;45671;-72
2023/01/18 04:42:31;;;;;;;;;0.00;0.00;;;;;4.54;72.10;98719.66;5016264;28;45491;-71
2023/01/18 04:44:57;;;;;;;;;0.00;0.00;;;;;4.57;72.14;98707.66;5017095;28;45511;-71
2023/01/18 04:47:22;;;;;;;;;0.00;0.00;;;;;4.64;71.88;98692.31;5016116;28;45344;-71
2023/01/18 04:49:48;;;;;;;;;0.00;0.00;;;;;4.69;72.04;98711.38;5016540;28;45506;-71
2023/01/18 04:52:13;;;;;;;;;0.00;0.00;;;;;4.69;72.04;98750.19;5015788;28;45500;-71
2023/01/18 04:54:39;;;;;;;;;0.00;0.00;;;;;4.65;71.78;98774.22;5015856;28;45422;-72
2023/01/18 04:57:04;;;;;;;;;0.00;0.00;;;;;4.63;72.47;98804.34;5015228;28;46203;-70
2023/01/18 04:59:30;;;;;;;;;0.00;0.00;;;;;4.60;73.17;98828.41;5016823;28;45466;-71
2023/01/18 05:01:55;;;;;;;;;0.00;0.00;;;;;4.58;73.58;98843.88;5016391;28;45524;-71
2023/01/18 05:04:21;;;;;;;;;0.00;0.00;;;;;4.38;73.98;98833.03;5016841;28;45430;-70
2023/01/18 05:06:50;;;;;;;;;0.00;0.00;;;;;4.55;73.51;98871.38;5016727;28;46132;-71
2023/01/18 05:09:15;;;;;;;;;0.00;0.00;;;;;4.41;73.43;98837.38;5016535;28;45589;-71
2023/01/18 05:11:41;;;;;;;;;0.00;0.00;;;;;4.62;72.94;98860.38;5016576;28;45293;-71
2023/01/18 05:14:07;;;;;;;;;0.00;0.00;;;;;4.61;73.26;98847.41;5016709;28;45367;-71
2023/01/18 05:16:34;;;;;;;;;0.00;0.00;;;;;4.54;73.54;98847.22;5014844;28;46100;-71
2023/01/18 05:18:59;;;;;;;;;5.00;5.00;;;;;4.38;73.67;98839.91;5015127;28;45347;-71
2023/01/18 05:21:25;;;;;;;;;31.00;31.00;;;;;4.46;73.20;98865.97;5015702;28;45466;-71
2023/01/18 05:23:51;;;;;;;;;5.25;5.25;;;;;4.39;73.37;98883.88;5014033;28;45521;-72
2023/01/18 05:26:19;;;;;;;;;0.00;0.00;;;;;4.43;73.00;98886.56;5014996;28;45531;-71
2023/01/18 05:28:46;;;;;;;;;0.00;0.00;;;;;4.44;73.67;98884.03;5005235;28;45426;-71
2023/01/18 05:31:14;;;;;;;;;0.00;0.00;;;;;4.39;73.14;98891.63;5009736;28;45494;-71
2023/01/18 05:33:40;;;;;;;;;0.00;0.00;;;;;4.39;73.65;98914.03;4998034;28;45305;-72
2023/01/18 05:36:06;;;;;;;;;0.00;0.00;;;;;4.40;74.23;98918.38;5015033;28;46239;-71
2023/01/18 05:38:31;;;;;;;;;0.50;0.00;;;;;4.44;73.90;98938.31;5015433;28;45608;-72
2023/01/18 05:40:57;;;;;;;;;0.00;0.00;;;;;4.45;73.66;98959.88;5001921;28;45305;-71
2023/01/18 05:43:24;;;;;;;;;0.00;0.00;;;;;4.38;74.04;98943.31;5013035;28;45486;-71
2023/01/18 05:45:50;;;;;;;;;17.00;15.50;;;;;4.53;73.46;98951.50;5015220;28;46083;-71
2023/01/18 05:48:16;;;;;;;;;0.50;0.50;;;;;4.33;73.78;98926.78;5014450;28;45404;-71
2023/01/18 05:50:43;;;;;;;;;1.25;1.00;;;;;4.37;74.04;98947.59;5013391;28;45349;-71
2023/01/18 05:53:10;;;;;;;;;1.25;1.25;;;;;4.54;73.96;98986.88;5027383;28;45305;-72
2023/01/18 05:55:35;;;;;;;;;0.00;0.00;;;;;4.53;73.99;98997.16;5018407;28;45494;-70
2023/01/18 05:58:01;;;;;;;;;9.00;9.00;;;;;4.56;73.43;99003.31;5017585;28;45512;-70
2023/01/18 06:00:27;;;;;;;;;0.00;0.00;;;;;4.43;73.42;98990.84;5017517;28;45447;-72
2023/01/18 06:02:53;;;;;;;;;0.00;0.00;;;;;4.57;73.73;99012.81;5016681;28;45681;-70
2023/01/18 06:05:20;;;;;;;;;0.00;0.00;;;;;4.35;74.35;99005.25;5016432;28;46206;-69
2023/01/18 06:07:46;;;;;;;;;0.00;0.00;;;;;4.11;73.94;98967.50;5016987;28;45579;-70
2023/01/18 06:10:13;;;;;;;;;0.00;0.00;;;;;4.44;73.22;99043.47;5016826;28;45402;-70
2023/01/18 06:12:39;;;;;;;;;0.00;0.00;;;;;4.42;73.79;99051.16;5017119;28;45438;-69
2023/01/18 06:15:05;;;;;;;;;0.00;0.00;;;;;4.38;73.74;99046.72;5016814;28;45819;-70
2023/01/18 06:17:33;;;;;;;;;0.00;0.00;;;;;4.43;73.42;99058.06;5010337;28;45506;-69
2023/01/18 06:19:58;;;;;;;;;0.00;0.00;;;;;4.32;73.54;99046.56;5017340;28;45417;-71
2023/01/18 06:22:24;;;;;;;;;0.00;0.00;;;;;4.35;73.61;99069.91;5017178;28;45354;-71
2023/01/18 06:24:49;;;;;;;;;0.00;0.00;;;;;4.30;73.54;99074.94;5017235;28;45420;-69
2023/01/18 06:27:15;;;;;;;;;0.00;0.00;;;;;4.26;73.37;99074.75;5017030;28;45545;-71
2023/01/18 06:29:40;;;;;;;;;0.00;0.00;;;;;4.23;73.72;99072.09;5017188;28;45440;-70
2023/01/18 06:32:06;;;;;;;;;0.25;0.25;;;;;4.00;73.82;99036.09;5012205;28;45552;-70
2023/01/18 06:34:32;;;;;;;;;0.00;0.00;;;;;4.21;73.47;99078.94;5016450;28;45324;-69
2023/01/18 06:36:58;;;;;;;;;3.25;3.25;;;;;4.19;74.51;99092.66;5016830;28;45478;-69
2023/01/18 06:39:24;;;;;;;;;0.00;0.00;;;;;4.12;75.26;99102.78;5017218;28;45494;-70
2023/01/18 06:41:50;;;;;;;;;0.00;0.00;;;;;4.05;74.76;99116.31;5016994;28;45644;-69
2023/01/18 06:44:15;;;;;;;;;0.00;0.00;;;;;4.06;75.87;99131.88;5015173;28;45458;-69
2023/01/18 06:46:44;;;;;;;;;2.00;0.00;;;;;4.06;75.80;99139.66;5015637;28;45547;-70
2023/01/18 06:49:10;;;;;;;;;0.00;0.00;;;;;4.11;75.25;99152.72;5016637;28;45615;-69
2023/01/18 06:51:36;;;;;;;;;2.00;2.00;;;;;4.13;75.32;99151.91;5017104;28;45363;-71
2023/01/18 06:54:01;;;;;;;;;1.25;1.00;;;;;4.16;75.06;99157.19;5013053;28;46019;-70
2023/01/18 06:56:28;;;;;;;;;2.75;1.75;;;;;4.19;75.74;99166.75;5006130;28;45537;-69
2023/01/18 06:58:56;;;;;;;;;2.00;2.00;;;;;4.19;75.21;99170.22;5031926;28;45439;-71
2023/01/18 07:01:21;;;;;;;;;5.25;5.00;;;;;3.98;75.36;99131.63;5017128;28;45584;-69
2023/01/18 07:03:47;;;;;;;;;5.50;5.50;;;;;4.16;75.50;99183.06;5015825;28;46030;-69
2023/01/18 07:06:12;;;;;;;;;5.50;4.50;;;;;4.13;75.63;99192.41;5016911;28;45526;-69
2023/01/18 07:08:39;;;;;;;;;5.25;3.25;;;;;4.15;75.49;99201.94;5017285;28;45446;-72
2023/01/18 07:11:09;;;;;;;;;4.00;2.25;;;;;4.16;75.61;99214.06;5018544;28;45448;-69
2023/01/18 07:13:39;;;;;;;;;9.50;8.50;;;;;4.15;75.53;99216.59;5016696;28;45438;-70
2023/01/18 07:16:05;;;;;;;;;3.25;3.25;;;;;4.11;76.17;99225.06;5016707;28;45510;-70
2023/01/18 07:18:31;;;;;;;;;2.75;2.75;;;;;3.92;75.76;99206.34;5017175;28;45431;-69
2023/01/18 07:20:59;;;;;;;;;13.00;9.75;;;;;4.08;76.01;99250.78;5016843;28;45375;-71
2023/01/18 07:23:25;;;;;;;;;9.75;9.00;;;;;4.05;75.77;99246.41;5025884;28;45781;-70
2023/01/18 07:25:59;;;;;;;;;5.50;5.00;;;;;4.02;76.32;99261.81;5022313;28;45441;-71
2023/01/18 07:28:24;;;;;;;;;7.25;5.00;;;;;3.59;76.72;99198.28;5015884;28;45723;-70
2023/01/18 07:30:49;;;;;;;;;7.25;7.25;;;;;3.99;76.39;99269.44;5016981;28;45297;-71
2023/01/18 07:33:15;;;;;;;;;16.75;16.50;;;;;4.05;76.47;99271.38;5013949;28;45816;-69
2023/01/18 07:35:41;;;;;;;;;2.00;2.00;;;;;4.12;76.07;99283.69;5011610;28;45406;-70
2023/01/18 07:38:06;;;;;;;;;16.50;16.50;;;;;4.12;75.79;99289.75;5014198;28;45645;-70
2023/01/18 07:40:32;;;;;;;;;4.00;4.00;;;;;4.13;75.63;99298.38;5014069;28;45439;-71
2023/01/18 07:42:58;;;;;;;;;5.75;5.75;;;;;4.14;75.18;99300.13;5013302;28;45414;-71
2023/01/18 07:45:24;;;;;;;;;8.50;8.25;;;;;4.20;75.29;99300.34;5013514;28;45378;-73
2023/01/18 07:47:51;;;;;;;;;0.00;0.00;;;;;4.25;74.96;99303.97;5013406;28;45876;-70
2023/01/18 07:50:17;;;;;;;;;3.25;2.75;;;;;4.27;75.29;99312.66;5015777;28;45562;-71
2023/01/18 07:52:42;;;;;;;;;4.25;3.25;;;;;4.31;75.21;99334.31;5014864;28;45565;-71
2023/01/18 07:55:08;;;;;;;;;6.00;5.25;;;;;4.37;75.31;99339.72;5014814;28;45507;-71
2023/01/18 07:57:34;;;;;;;;;5.25;5.00;;;;;4.38;74.72;99339.78;5013440;28;45969;-70
2023/01/18 07:59:59;;;;;;;;;6.25;5.00;;;;;3.99;75.16;99278.06;5013328;28;46073;-70
2023/01/18 08:02:25;;;;;;;;;4.50;4.00;;;;;4.42;75.21;99345.03;5012458;28;46025;-70
2023/01/18 08:04:50;;;;;;;;;5.25;5.25;;;;;4.46;74.60;99336.59;5014273;28;45499;-71
2023/01/18 08:07:16;;;;;;;;;33.25;24.50;;;;;4.49;74.82;99358.22;5013706;28;45501;-70
2023/01/18 08:09:42;;;;;;;;;41.25;33.50;;;;;4.55;75.75;99362.75;5013722;28;45568;-70
2023/01/18 08:12:12;;;;;;;;;15.50;15.50;;;;;4.61;75.30;99359.50;5015213;28;45384;-70
2023/01/18 08:14:39;;;;;;;;;9.50;8.50;;;;;4.70;75.22;99357.25;5015590;28;45521;-72
2023/01/18 08:17:05;;;;;;;;;10.00;10.00;;;;;4.75;75.58;99359.13;5013887;28;45684;-71
2023/01/18 08:19:31;;;;;;;;;26.50;23.50;;;;;4.73;75.07;99362.50;5014993;28;45339;-71
2023/01/18 08:21:56;;;;;;;;;48.25;42.00;;;;;4.54;75.32;99335.13;5014873;28;46050;-71
2023/01/18 08:24:22;;;;;;;;;23.00;19.00;;;;;4.81;75.16;99378.28;5015727;28;45553;-72
2023/01/18 08:26:48;;;;;;;;;16.75;15.00;;;;;4.86;74.79;99382.81;5015216;28;45543;-71
2023/01/18 08:29:14;;;;;;;;;18.75;17.50;;;;;4.74;74.49;99359.09;5015609;28;45264;-71
2023/01/18 08:31:39;;;;;;;;;35.50;30.50;;;;;4.88;74.56;99388.03;5015551;28;45419;-71
2023/01/18 08:34:05;;;;;;;;;28.00;25.00;;;;;4.91;74.35;99408.81;5015185;28;45356;-71
2023/01/18 08:36:31;;;;;;;;;26.25;24.50;;;;;4.50;74.57;99353.97;5014903;28;45515;-70
2023/01/18 08:38:56;;;;;;;;;27.25;25.50;;;;;4.89;74.56;99416.53;5015258;28;45358;-71
2023/01/18 08:41:27;;;;;;;;;14.50;14.50;;;;;4.90;74.56;99426.06;5014486;28;45450;-75
2023/01/18 08:43:54;;;;;;;;;15.75;15.75;;;;;4.92;74.15;99424.41;5014728;28;45375;-71
2023/01/18 08:46:20;;;;;;;;;10.00;9.50;;;;;4.95;74.77;99421.03;5014220;28;45440;-71
2023/01/18 08:48:58;;;;;;;;;9.00;9.00;;;;;4.92;74.17;99414.06;5014433;28;45665;-71
2023/01/18 08:51:24;;;;;;;;;6.00;6.00;;;;;4.95;74.23;99424.53;5015180;28;45417;-75
2023/01/18 08:53:52;;;;;;;;;16.25;13.75;;;;;4.91;74.60;99417.47;5016503;28;45374;-70
2023/01/18 08:56:18;;;;;;;;;13.00;11.00;;;;;4.93;74.75;99422.69;5016742;28;45451;-70
2023/01/18 08:58:43;;;;;;;;;7.00;7.00;;;;;4.89;74.32;99426.00;5016810;28;45574;-71
2023/01/18 09:01:09;;;;;;;;;9.25;6.50;;;;;5.01;74.42;99417.78;5016802;28;46368;-71
2023/01/18 09:03:36;;;;;;;;;12.50;12.50;;;;;5.30;73.95;99431.72;5016558;28;45440;-71
2023/01/18 09:06:04;;;;;;;;;10.00;8.25;;;;;4.95;73.19;99325.28;5016811;28;45226;-69
2023/01/18 09:08:30;;;;;;;;;11.50;11.00;;;;;5.69;73.23;99426.03;5016977;28;45423;-70
2023/01/18 09:11:01;;;;;;;;;9.00;7.75;;;;;5.74;72.44;99432.25;5016418;28;45361;-70
2023/01/18 09:13:26;;;;;;;;;8.00;7.00;;;;;5.61;72.44;99428.41;5016377;28;45428;-70
2023/01/18 09:16:06;;;;;;;;;6.00;6.00;;;;;5.51;73.09;99426.34;5016438;28;45486;-70
2023/01/18 09:18:32;;;;;;;;;8.50;7.00;;;;;5.55;73.28;99436.88;5010630;28;45596;-70
2023/01/18 09:20:57;;;;;;;;;6.50;6.00;;;;;5.69;73.16;99432.13;5003091;28;46054;-75
2023/01/18 09:23:23;;;;;;;;;5.75;5.25;;;;;5.80;73.01;99431.56;5018641;28;45361;-70
2023/01/18 09:26:11;;;;;;;;;6.00;6.00;;;;;5.92;72.62;99424.19;5019589;28;45325;-71
2023/01/18 09:28:39;;;;;;;;;9.75;9.00;;;;;6.03;72.69;99420.25;5005113;28;45503;-70
2023/01/18 09:31:08;;;;;;;;;7.00;6.00;;;;;6.19;72.27;99418.97;5018766;28;46098;-75
2023/01/18 09:33:35;;;;;;;;;8.00;7.50;;;;;6.73;71.36;99405.78;5018848;28;45352;-71
2023/01/18 09:36:04;;;;;;;;;10.75;9.25;;;;;7.54;68.88;99387.88;5018281;28;45547;-72
2023/01/18 09:38:30;;;;;;;;;12.75;10.25;;;;;8.66;66.74;99416.34;5018481;28;45535;-71
2023/01/18 09:40:57;;;;;;;;;13.75;12.00;;;;;9.46;64.27;99420.38;5018244;28;45466;-71
2023/01/18 09:43:30;;;;;;;;;18.50;15.50;;;;;10.05;63.59;99416.06;5018391;28;45683;-71
2023/01/18 09:45:56;;;;;;;;;19.75;19.75;;;;;10.56;60.80;99407.13;5018121;28;45467;-73
2023/01/18 09:48:38;;;;;;;;;6.25;6.25;;;;;10.99;60.38;99417.19;5018452;28;45522;-71
2023/01/18 09:51:19;;;;;;;;;4.50;4.00;;;;;11.43;59.67;99427.19;5018232;28;45513;-71
2023/01/18 09:53:53;;;;;;;;;3.75;3.00;;;;;11.80;58.36;99432.69;5017709;28;45401;-74
2023/01/18 09:56:30;;;;;;;;;2.00;2.00;;;;;12.06;56.39;99433.78;5018686;28;45648;-71
2023/01/18 09:59:11;;;;;;;;;2.00;1.33;;;;;12.16;57.73;99428.63;5018845;28;47135;-72
2023/01/18 10:01:37;;;;;;;;;6.00;5.00;;;;;11.86;56.29;99398.75;5017756;28;45693;-71
2023/01/18 10:04:15;;;;;;;;;3.33;3.33;;;;;12.08;57.06;99416.34;5018455;28;45400;-71
2023/01/18 10:06:49;;;;;;;;;2.33;2.33;;;;;12.41;56.47;99440.94;5018735;28;45533;-74
2023/01/18 10:09:38;;;;;;;;;3.00;3.00;;;;;12.70;55.10;99440.22;5018514;28;45522;-73
2023/01/18 10:12:20;;;;;;;;;3.00;2.67;;;;;12.47;53.90;99406.94;5004892;28;45461;-71
2023/01/18 10:14:53;;;;;;;;;6.33;6.00;;;;;12.77;54.54;99435.84;5018705;28;45339;-71
2023/01/18 10:17:34;;;;;;;;;2.67;2.00;;;;;12.87;53.58;99446.38;5016947;28;45287;-71
2023/01/18 10:20:00;;;;;;;;;2.00;2.00;;;;;12.87;53.51;99448.13;5010926;28;45518;-75
2023/01/18 10:22:37;;;;;;;;;3.00;3.00;;;;;12.98;53.51;99445.53;5010718;28;46189;-73
2023/01/18 10:25:13;;;;;;;;;3.33;3.00;;;;;13.09;55.32;99443.78;5017534;28;45469;-72
2023/01/18 10:27:47;;;;;;;;;4.00;3.33;;;;;13.18;50.76;99448.19;5010407;28;45265;-72
2023/01/18 10:30:31;;;;;;;;;2.33;1.00;;;;;13.23;51.76;99449.06;5011701;28;45547;-72
2023/01/18 10:33:12;;;;;;;;;1.00;0.00;;;;;13.19;48.93;99444.69;5016434;28;45498;-72
2023/01/18 10:35:46;;;;;;;;;4.33;4.33;;;;;13.05;50.29;99445.56;5016417;28;45563;-71
2023/01/18 10:38:24;;;;;;;;;1.00;1.00;;;;;12.87;50.75;99450.72;5017970;28;45475;-72
2023/01/18 10:41:20;;;;;;;;;4.00;3.00;;;;;12.87;51.79;99459.50;5018110;28;45331;-71
2023/01/18 10:43:46;;;;;;;;;2.00;2.00;;;;;12.59;50.94;99431.44;5017708;28;46023;-72
2023/01/18 10:46:17;;;;;;;;;0.33;0.33;;;;;12.69;51.54;99456.78;5017345;28;45855;-71
2023/01/18 10:48:49;;;;;;;;;0.67;0.33;;;;;12.62;50.33;99453.28;5017676;28;45579;-72
2023/01/18 10:51:31;;;;;;;;;0.00;0.00;;;;;12.45;50.50;99462.78;5018500;28;45396;-71
2023/01/18 10:53:58;;;;;;;;;1.00;1.00;;;;;12.23;51.58;99443.47;5017490;28;46067;-71
2023/01/18 10:56:27;;;;;;;;;1.00;1.00;;;;;12.29;51.98;99469.69;5017813;28;45384;-71
2023/01/18 10:59:00;;;;;;;;;2.00;1.00;;;;;12.22;51.16;99463.56;5017461;28;45328;-71
2023/01/18 11:01:33;;;;;;;;;2.00;2.00;;;;;11.91;50.43;99458.09;5018032;28;45532;-77
2023/01/18 11:04:15;;;;;;;;;2.00;2.00;;;;;11.79;52.14;99471.06;5015394;28;45577;-73
2023/01/18 11:07:03;;;;;;;;;1.00;1.00;;;;;11.64;52.58;99469.22;5017368;28;45461;-76
2023/01/18 11:09:45;;;;;;;;;2.67;2.00;;;;;11.54;52.30;99463.03;5017566;28;45442;-77
2023/01/18 11:12:35;;;;;;;;;3.00;1.67;;;;;11.48;53.41;99456.84;5017353;28;47070;-72
2023/01/18 11:15:22;;;;;;;;;18.50;17.00;;;;;11.55;53.01;99445.59;5017108;28;46200;-75
2023/01/18 11:18:02;;;;;;;;;32.50;31.75;;;;;11.60;52.62;99443.91;5016496;28;46185;-76
2023/01/18 11:20:38;;;;;;;;;28.75;24.75;;;;;11.68;52.41;99433.50;5017238;28;45501;-75
2023/01/18 11:23:16;;;;;;;;;31.25;25.50;;;;;11.78;52.67;99444.88;5017150;28;45359;-71
2023/01/18 11:26:16;;;;;;;;;18.25;16.50;;;;;11.90;52.29;99438.06;5017147;28;45522;-71
2023/01/18 11:28:58;;;;;;;;;10.50;8.75;;;;;11.99;52.30;99428.50;4984490;28;45548;-71
2023/01/18 11:31:26;;;;;;;;;6.75;6.75;;;;;12.04;52.33;99425.06;5000092;28;45315;-71
2023/01/18 11:33:53;;;;;;;;;0.00;0.00;;;;;12.01;52.21;99432.00;5010984;28;45450;-73
2023/01/18 11:36:32;;;;;;;;;1.00;1.00;;;;;12.12;52.42;99420.75;5008286;28;46099;-73
2023/01/18 11:39:18;;;;;;;;;1.00;1.00;;;;;12.15;52.80;99398.94;5015978;28;45506;-72
2023/01/18 11:41:44;;;;;;;;;2.00;1.00;;;;;12.39;50.38;99400.78;5016683;28;45561;-71
2023/01/18 11:44:29;;;;;;;;;2.00;1.00;;;;;12.50;50.17;99393.84;5016677;28;45539;-73
2023/01/18 11:46:59;;;;;;;;;2.00;2.00;;;;;12.42;50.41;99408.66;5015551;28;46000;-74
2023/01/18 11:49:46;;;;;;;;;3.00;2.00;;;;;12.35;50.31;99404.25;5016553;28;45439;-74
2023/01/18 11:52:36;;;;;;;;;1.33;1.00;;;;;12.17;50.58;99406.78;5017566;28;45364;-74
2023/01/18 11:55:06;;;;;;;;;1.00;1.00;;;;;12.05;49.58;99395.38;5032218;28;45479;-71
2023/01/18 11:57:31;;;;;;;;;3.33;3.00;;;;;11.80;50.06;99385.59;5031379;28;45468;-72
2023/01/18 11:59:58;;;;;;;;;2.00;2.00;;;;;11.61;49.75;99364.56;5016566;28;46114;-71
2023/01/18 12:02:35;;;;;;;;;4.67;3.00;;;;;11.41;49.78;99356.56;5016053;28;45628;-71
2023/01/18 12:05:26;;;;;;;;;1.00;1.00;;;;;11.08;50.13;99346.72;5016079;28;45512;-72
2023/01/18 12:08:41;;;;;;;;;47.75;37.50;;;;;10.82;50.92;99322.97;5015618;28;45582;-71
2023/01/18 12:11:25;;;;;;;;;12.00;9.00;;;;;11.06;50.15;99378.09;4984153;28;45386;-71
2023/01/18 12:13:58;;;;;;;;;14.25;14.25;;;;;11.06;49.25;99385.03;5016889;28;45462;-72
2023/01/18 12:16:47;;;;;;;;;19.00;17.00;;;;;11.00;48.51;99372.81;5032849;28;45502;-72
2023/01/18 12:19:51;;;;;;;;;17.50;14.75;;;;;10.94;49.05;99373.63;5016124;28;45532;-76
2023/01/18 12:22:46;;;;;;;;;13.25;12.25;;;;;10.90;49.12;99371.84;5031220;28;46466;-77
2023/01/18 12:25:20;;;;;;;;;4.00;3.00;;;;;10.81;49.32;99368.25;5003118;28;45502;-72